Time;durP1;ratioP1;P1;durP2;ratioP2;P2;SDS_P1;SDS_P2;PMS_P1;PMS_P2;Temp;Humidity;BMP_temperature;BMP_pressure;BME280_temperature;BME280_humidity;BME280_pressure;Samples;Min_cycle;Max_cycle;Signal;HPM_P1;HPM_P2
2023/11/04 00:00:28;;;;;;;0.00;0.00;;;;;;;;;;5071808;28;20085;-58
2023/11/04 00:02:55;;;;;;;0.30;0.13;;;;;;;;;;5086701;28;20483;-58
2023/11/04 00:05:22;;;;;;;0.40;0.20;;;;;;;;;;5086850;28;20032;-58
2023/11/04 00:07:48;;;;;;;0.23;0.10;;;;;;;;;;5090120;28;20073;-58
2023/11/04 00:10:15;;;;;;;0.43;0.20;;;;;;;;;;5087878;28;20115;-58
2023/11/04 00:12:41;;;;;;;0.00;0.00;;;;;;;;;;5071852;28;20131;-58
2023/11/04 00:15:09;;;;;;;1.13;0.77;;;;;;;;;;5071663;28;20033;-58
2023/11/04 00:17:35;;;;;;;0.90;0.30;;;;;;;;;;5071897;28;20025;-58
2023/11/04 00:20:02;;;;;;;0.40;0.23;;;;;;;;;;5068995;28;20029;-58
2023/11/04 00:22:29;;;;;;;4.47;0.67;;;;;;;;;;5086740;28;20020;-58
2023/11/04 00:24:56;;;;;;;0.70;0.37;;;;;;;;;;5087210;28;20061;-58
2023/11/04 00:27:23;;;;;;;1.20;0.73;;;;;;;;;;5090763;28;20103;-59
2023/11/04 00:29:49;;;;;;;1.53;0.73;;;;;;;;;;5093560;28;20051;-58
2023/11/04 00:32:16;;;;;;;1.80;0.70;;;;;;;;;;5075983;28;20033;-58
2023/11/04 00:34:43;;;;;;;0.20;0.20;;;;;;;;;;5075489;28;20036;-58
2023/11/04 00:37:10;;;;;;;0.20;0.20;;;;;;;;;;5075092;28;20589;-59
2023/11/04 00:39:37;;;;;;;2.23;0.97;;;;;;;;;;5075417;28;20033;-58
2023/11/04 00:42:04;;;;;;;0.63;0.50;;;;;;;;;;5081531;28;20379;-58
2023/11/04 00:44:31;;;;;;;5.50;0.30;;;;;;;;;;5069826;28;20078;-59
2023/11/04 00:46:58;;;;;;;0.30;0.20;;;;;;;;;;5070062;28;20048;-58
2023/11/04 00:49:24;;;;;;;0.80;0.40;;;;;;;;;;5070102;28;20024;-58
2023/11/04 00:51:51;;;;;;;0.10;0.10;;;;;;;;;;5074234;28;20033;-58
2023/11/04 00:54:17;;;;;;;0.50;0.20;;;;;;;;;;5095162;28;20506;-58
2023/11/04 00:56:44;;;;;;;1.30;0.67;;;;;;;;;;5095564;28;20024;-58
2023/11/04 00:59:11;;;;;;;3.20;0.50;;;;;;;;;;5095003;28;20036;-59
2023/11/04 01:01:37;;;;;;;0.37;0.30;;;;;;;;;;5075170;28;20086;-58
2023/11/04 01:04:05;;;;;;;4.00;0.53;;;;;;;;;;5073091;28;20025;-58
2023/11/04 01:06:32;;;;;;;2.40;1.20;;;;;;;;;;5069465;28;20538;-58
2023/11/04 01:08:59;;;;;;;7.10;0.67;;;;;;;;;;5069423;28;20115;-58
2023/11/04 01:11:26;;;;;;;1.33;0.83;;;;;;;;;;5084539;28;20024;-59
2023/11/04 01:13:53;;;;;;;0.77;0.60;;;;;;;;;;5079643;28;20029;-59
2023/11/04 01:16:20;;;;;;;0.67;0.50;;;;;;;;;;5074973;28;20032;-58
2023/11/04 01:18:47;;;;;;;0.53;0.37;;;;;;;;;;5074673;28;20060;-58
2023/11/04 01:21:14;;;;;;;1.03;0.40;;;;;;;;;;5080851;28;20046;-58
2023/11/04 01:23:40;;;;;;;0.10;0.10;;;;;;;;;;5094535;28;20048;-58
2023/11/04 01:26:07;;;;;;;0.00;0.00;;;;;;;;;;5093792;28;20043;-59
2023/11/04 01:28:34;;;;;;;0.30;0.20;;;;;;;;;;5089752;28;21304;-58
2023/11/04 01:31:01;;;;;;;0.00;0.00;;;;;;;;;;5085522;28;20066;-58
2023/11/04 01:33:28;;;;;;;0.00;0.00;;;;;;;;;;5069505;28;20078;-59
2023/11/04 01:35:55;;;;;;;0.23;0.20;;;;;;;;;;5069195;28;20383;-58
2023/11/04 01:38:21;;;;;;;2.90;0.50;;;;;;;;;;5074294;28;20028;-59
2023/11/04 01:40:49;;;;;;;0.30;0.13;;;;;;;;;;5075788;28;20025;-59
2023/11/04 01:43:29;;;;;;;0.00;0.00;;;;;;;;;;5094752;28;20028;-58
2023/11/04 01:45:58;;;;;;;0.53;0.33;;;;;;;;;;5094183;28;20017;-59
2023/11/04 01:48:25;;;;;;;1.43;0.63;;;;;;;;;;5093747;28;20016;-58
2023/11/04 01:50:51;;;;;;;0.00;0.00;;;;;;;;;;5078995;28;20035;-58
2023/11/04 01:53:18;;;;;;;1.20;0.40;;;;;;;;;;5068897;28;20028;-58
2023/11/04 01:55:45;;;;;;;0.33;0.20;;;;;;;;;;5068965;28;20702;-58
2023/11/04 01:58:11;;;;;;;0.10;0.10;;;;;;;;;;5068951;28;20092;-59
2023/11/04 02:00:38;;;;;;;0.63;0.40;;;;;;;;;;5075098;28;20210;-58
2023/11/04 02:03:05;;;;;;;0.20;0.10;;;;;;;;;;5083448;28;20086;-58
2023/11/04 02:05:33;;;;;;;0.20;0.20;;;;;;;;;;5076383;28;20034;-58
2023/11/04 02:08:00;;;;;;;0.73;0.33;;;;;;;;;;5073434;28;20032;-59
2023/11/04 02:10:26;;;;;;;0.67;0.23;;;;;;;;;;5073953;28;20063;-59
2023/11/04 02:12:53;;;;;;;2.37;0.30;;;;;;;;;;5068527;28;20437;-59
2023/11/04 02:15:20;;;;;;;0.73;0.37;;;;;;;;;;5068765;28;20503;-58
2023/11/04 02:17:47;;;;;;;0.63;0.40;;;;;;;;;;5068723;28;20063;-58
2023/11/04 02:20:15;;;;;;;0.33;0.23;;;;;;;;;;5068037;28;20089;-58
2023/11/04 02:22:41;;;;;;;1.37;0.40;;;;;;;;;;5072996;28;20502;-58
2023/11/04 02:25:08;;;;;;;8.70;0.60;;;;;;;;;;5073569;28;20017;-58
2023/11/04 02:27:35;;;;;;;0.30;0.23;;;;;;;;;;5073680;28;20024;-58
2023/11/04 02:30:03;;;;;;;0.30;0.17;;;;;;;;;;5073758;28;20039;-58
2023/11/04 02:32:30;;;;;;;3.10;0.60;;;;;;;;;;5073499;28;20025;-58
2023/11/04 02:34:57;;;;;;;0.13;0.07;;;;;;;;;;5069187;28;20028;-59
2023/11/04 02:37:24;;;;;;;0.20;0.13;;;;;;;;;;5067738;28;20032;-58
2023/11/04 02:39:51;;;;;;;0.60;0.33;;;;;;;;;;5068404;28;20033;-58
2023/11/04 02:42:18;;;;;;;0.07;0.03;;;;;;;;;;5068404;28;20811;-59
2023/11/04 02:44:44;;;;;;;1.43;0.43;;;;;;;;;;5071677;28;20020;-58
2023/11/04 02:47:11;;;;;;;0.33;0.23;;;;;;;;;;5072953;28;20032;-58
2023/11/04 02:49:38;;;;;;;0.10;0.10;;;;;;;;;;5073215;28;20025;-58
2023/11/04 02:52:04;;;;;;;0.53;0.37;;;;;;;;;;5073162;28;20379;-58
2023/11/04 02:54:31;;;;;;;0.00;0.00;;;;;;;;;;5073013;28;20029;-59
2023/11/04 02:56:58;;;;;;;0.17;0.10;;;;;;;;;;5069315;28;20024;-58
2023/11/04 02:59:27;;;;;;;0.43;0.30;;;;;;;;;;5067822;28;20032;-59
2023/11/04 03:01:54;;;;;;;0.23;0.20;;;;;;;;;;5067813;28;20063;-58
2023/11/04 03:04:21;;;;;;;0.10;0.10;;;;;;;;;;5067909;28;20106;-58
2023/11/04 03:06:47;;;;;;;0.20;0.10;;;;;;;;;;5070512;28;20441;-58
2023/11/04 03:09:14;;;;;;;0.10;0.10;;;;;;;;;;5072885;28;20036;-58
2023/11/04 03:11:41;;;;;;;0.10;0.10;;;;;;;;;;5072567;28;20032;-59
2023/11/04 03:14:07;;;;;;;0.20;0.10;;;;;;;;;;5072671;28;20039;-59
2023/11/04 03:16:34;;;;;;;3.20;0.40;;;;;;;;;;5072656;28;20024;-58
2023/11/04 03:19:01;;;;;;;0.20;0.20;;;;;;;;;;5069639;28;20058;-58
2023/11/04 03:21:27;;;;;;;0.07;0.07;;;;;;;;;;5067400;28;20032;-58
2023/11/04 03:23:55;;;;;;;0.30;0.20;;;;;;;;;;5067456;28;20048;-58
2023/11/04 03:26:22;;;;;;;0.00;0.00;;;;;;;;;;5067320;28;20078;-59
2023/11/04 03:28:49;;;;;;;1.13;0.53;;;;;;;;;;5069462;28;20035;-59
2023/11/04 03:31:16;;;;;;;0.10;0.10;;;;;;;;;;5072037;28;20021;-58
2023/11/04 03:33:43;;;;;;;0.30;0.13;;;;;;;;;;5072180;28;20055;-58
2023/11/04 03:36:10;;;;;;;0.07;0.07;;;;;;;;;;5072312;28;20082;-58
2023/11/04 03:38:38;;;;;;;0.57;0.30;;;;;;;;;;5072052;28;20024;-58
2023/11/04 03:41:05;;;;;;;0.57;0.20;;;;;;;;;;5070011;28;20036;-58
2023/11/04 03:43:32;;;;;;;0.03;0.03;;;;;;;;;;5068133;28;20025;-58
2023/11/04 03:45:58;;;;;;;0.07;0.03;;;;;;;;;;5081755;28;20035;-58
2023/11/04 03:48:26;;;;;;;0.90;0.23;;;;;;;;;;5087212;28;20383;-59
2023/11/04 03:50:53;;;;;;;1.53;0.20;;;;;;;;;;5088558;28;20059;-58
2023/11/04 03:53:19;;;;;;;0.10;0.00;;;;;;;;;;5092090;28;20024;-58
2023/11/04 03:55:46;;;;;;;0.13;0.13;;;;;;;;;;5072263;28;20031;-58
2023/11/04 03:58:13;;;;;;;0.20;0.10;;;;;;;;;;5092336;28;20071;-58
2023/11/04 04:00:40;;;;;;;0.20;0.10;;;;;;;;;;5091085;28;20032;-58
2023/11/04 04:03:07;;;;;;;1.40;0.37;;;;;;;;;;5090509;28;20391;-59
2023/11/04 04:05:34;;;;;;;0.77;0.43;;;;;;;;;;5075715;28;20493;-58
2023/11/04 04:08:00;;;;;;;0.00;0.00;;;;;;;;;;5066778;28;20475;-58
2023/11/04 04:10:27;;;;;;;0.13;0.13;;;;;;;;;;5074755;28;20040;-58
2023/11/04 04:12:54;;;;;;;0.00;0.00;;;;;;;;;;5067377;28;20039;-58
2023/11/04 04:15:23;;;;;;;0.20;0.10;;;;;;;;;;5071958;28;20021;-58
2023/11/04 04:17:50;;;;;;;0.67;0.23;;;;;;;;;;5072967;28;20487;-58
2023/11/04 04:20:17;;;;;;;0.87;0.17;;;;;;;;;;5081400;28;20067;-58
2023/11/04 04:22:45;;;;;;;0.00;0.00;;;;;;;;;;5072427;28;20024;-58
2023/11/04 04:25:11;;;;;;;0.43;0.20;;;;;;;;;;5074102;28;20116;-58
2023/11/04 04:27:38;;;;;;;0.63;0.07;;;;;;;;;;5085650;28;20024;-58
2023/11/04 04:30:05;;;;;;;0.33;0.20;;;;;;;;;;5072067;28;20020;-58
2023/11/04 04:32:32;;;;;;;0.40;0.30;;;;;;;;;;5085009;28;20418;-59
2023/11/04 04:34:59;;;;;;;0.17;0.13;;;;;;;;;;5067425;28;20035;-58
2023/11/04 04:37:28;;;;;;;0.10;0.10;;;;;;;;;;5072699;28;20422;-58
2023/11/04 04:39:54;;;;;;;3.83;0.73;;;;;;;;;;5071256;28;20041;-58
2023/11/04 04:42:21;;;;;;;0.00;0.00;;;;;;;;;;5085593;28;20064;-58
2023/11/04 04:44:48;;;;;;;0.77;0.40;;;;;;;;;;5091904;28;20089;-58
2023/11/04 04:47:15;;;;;;;0.10;0.10;;;;;;;;;;5091720;28;20024;-58
2023/11/04 04:49:42;;;;;;;0.00;0.00;;;;;;;;;;5084941;28;20112;-58
2023/11/04 04:52:10;;;;;;;0.30;0.20;;;;;;;;;;5067671;28;20430;-59
2023/11/04 04:54:36;;;;;;;0.27;0.20;;;;;;;;;;5066269;28;20037;-58
2023/11/04 04:57:03;;;;;;;0.10;0.03;;;;;;;;;;5066118;28;20056;-58
2023/11/04 04:59:30;;;;;;;0.30;0.30;;;;;;;;;;5076791;28;20410;-58
2023/11/04 05:01:56;;;;;;;0.00;0.00;;;;;;;;;;5075728;28;20031;-57
2023/11/04 05:04:23;;;;;;;0.13;0.13;;;;;;;;;;5071561;28;20455;-58
2023/11/04 05:06:50;;;;;;;0.00;0.00;;;;;;;;;;5071477;28;20020;-58
2023/11/04 05:09:17;;;;;;;0.23;0.20;;;;;;;;;;5071303;28;20036;-58
2023/11/04 05:11:44;;;;;;;1.60;0.20;;;;;;;;;;5068614;28;20051;-58
2023/11/04 05:14:11;;;;;;;0.57;0.30;;;;;;;;;;5069798;28;20025;-58
2023/11/04 05:16:38;;;;;;;0.03;0.03;;;;;;;;;;5069927;28;20060;-58
2023/11/04 05:19:05;;;;;;;0.10;0.10;;;;;;;;;;5081054;28;20036;-58
2023/11/04 05:21:32;;;;;;;0.30;0.10;;;;;;;;;;5093564;28;20038;-58
2023/11/04 05:23:58;;;;;;;0.10;0.03;;;;;;;;;;5095329;28;20028;-58
2023/11/04 05:26:25;;;;;;;0.00;0.00;;;;;;;;;;5094964;28;20039;-58
2023/11/04 05:28:52;;;;;;;0.13;0.07;;;;;;;;;;5095230;28;20012;-58
2023/11/04 05:31:18;;;;;;;0.00;0.00;;;;;;;;;;5094235;28;20024;-58
2023/11/04 05:33:48;;;;;;;0.97;0.33;;;;;;;;;;5090965;28;20024;-58
2023/11/04 05:36:18;;;;;;;0.13;0.10;;;;;;;;;;5089529;28;20023;-58
2023/11/04 05:38:45;;;;;;;0.83;0.30;;;;;;;;;;5089530;28;20580;-58
2023/11/04 05:41:12;;;;;;;0.00;0.00;;;;;;;;;;5089729;28;20479;-58
2023/11/04 05:43:39;;;;;;;0.17;0.10;;;;;;;;;;5092544;28;20024;-58
2023/11/04 05:46:09;;;;;;;0.20;0.20;;;;;;;;;;5094228;28;20024;-58
2023/11/04 05:48:37;;;;;;;0.20;0.20;;;;;;;;;;5094475;28;20077;-58
2023/11/04 05:51:05;;;;;;;0.30;0.20;;;;;;;;;;5094516;28;20031;-58
2023/11/04 05:53:32;;;;;;;0.00;0.00;;;;;;;;;;5094302;28;20028;-58
2023/11/04 05:55:59;;;;;;;0.10;0.10;;;;;;;;;;5075541;28;20085;-58
2023/11/04 05:58:25;;;;;;;0.50;0.20;;;;;;;;;;5069289;28;20024;-58
2023/11/04 06:00:52;;;;;;;0.40;0.20;;;;;;;;;;5069165;28;20033;-58
2023/11/04 06:03:19;;;;;;;0.10;0.10;;;;;;;;;;5069114;28;20437;-58
2023/11/04 06:05:47;;;;;;;0.23;0.13;;;;;;;;;;5071596;28;20115;-58
2023/11/04 06:08:13;;;;;;;0.57;0.17;;;;;;;;;;5074188;28;20029;-58
2023/11/04 06:10:40;;;;;;;1.13;0.40;;;;;;;;;;5074091;28;20486;-58
2023/11/04 06:13:07;;;;;;;0.00;0.00;;;;;;;;;;5073997;28;20433;-58
2023/11/04 06:15:34;;;;;;;0.40;0.10;;;;;;;;;;5073881;28;20585;-57
2023/11/04 06:18:00;;;;;;;0.63;0.30;;;;;;;;;;5071392;28;20029;-58
2023/11/04 06:20:27;;;;;;;0.43;0.30;;;;;;;;;;5068697;28;20442;-58
2023/11/04 06:22:54;;;;;;;0.30;0.30;;;;;;;;;;5079754;28;20024;-58
2023/11/04 06:25:20;;;;;;;0.00;0.00;;;;;;;;;;5088838;28;20023;-57
2023/11/04 06:27:47;;;;;;;0.73;0.30;;;;;;;;;;5090320;28;20157;-58
2023/11/04 06:30:14;;;;;;;0.10;0.10;;;;;;;;;;5093874;28;20505;-58
2023/11/04 06:32:40;;;;;;;0.07;0.07;;;;;;;;;;5093460;28;20024;-58
2023/11/04 06:35:07;;;;;;;0.10;0.10;;;;;;;;;;5093941;28;20031;-58
2023/11/04 06:37:37;;;;;;;0.93;0.33;;;;;;;;;;5093478;28;20016;-58
2023/11/04 06:40:09;;;;;;;0.00;0.00;;;;;;;;;;5091190;28;20070;-58
2023/11/04 06:42:36;;;;;;;0.20;0.10;;;;;;;;;;5088418;28;20036;-57
2023/11/04 06:45:04;;;;;;;0.10;0.10;;;;;;;;;;5088100;28;20058;-58
2023/11/04 06:47:31;;;;;;;0.00;0.00;;;;;;;;;;5088586;28;20028;-58
2023/11/04 06:49:59;;;;;;;0.73;0.27;;;;;;;;;;5089792;28;20039;-58
2023/11/04 06:52:26;;;;;;;0.17;0.17;;;;;;;;;;5093481;28;20052;-58
2023/11/04 06:54:53;;;;;;;0.13;0.13;;;;;;;;;;5093195;28;20494;-57
2023/11/04 06:57:19;;;;;;;0.07;0.07;;;;;;;;;;5079755;28;20056;-58
2023/11/04 06:59:46;;;;;;;0.10;0.00;;;;;;;;;;5072608;28;20036;-58
2023/11/04 07:02:13;;;;;;;0.07;0.07;;;;;;;;;;5053156;28;20024;-58
2023/11/04 07:04:41;;;;;;;0.10;0.10;;;;;;;;;;5067722;28;20032;-57
2023/11/04 07:07:08;;;;;;;0.10;0.10;;;;;;;;;;5067653;28;20037;-57
2023/11/04 07:09:35;;;;;;;0.10;0.10;;;;;;;;;;5067626;28;20353;-57
2023/11/04 07:12:02;;;;;;;0.10;0.10;;;;;;;;;;5068123;28;20029;-57
2023/11/04 07:14:31;;;;;;;0.17;0.13;;;;;;;;;;5072653;28;20029;-58
2023/11/04 07:16:58;;;;;;;0.37;0.30;;;;;;;;;;5072706;28;20029;-57
2023/11/04 07:19:25;;;;;;;0.10;0.10;;;;;;;;;;5072566;28;20032;-58
2023/11/04 07:21:51;;;;;;;0.40;0.30;;;;;;;;;;5072596;28;20025;-58
2023/11/04 07:24:18;;;;;;;0.20;0.10;;;;;;;;;;5071174;28;20032;-58
2023/11/04 07:26:46;;;;;;;1.20;0.20;;;;;;;;;;5067214;28;20472;-58
2023/11/04 07:29:13;;;;;;;0.40;0.20;;;;;;;;;;5067302;28;20028;-58
2023/11/04 07:31:41;;;;;;;0.27;0.20;;;;;;;;;;5067144;28;20039;-58
2023/11/04 07:34:08;;;;;;;0.10;0.10;;;;;;;;;;5067718;28;20127;-57
2023/11/04 07:36:35;;;;;;;1.53;0.30;;;;;;;;;;5072088;28;20091;-58
2023/11/04 07:39:02;;;;;;;0.10;0.10;;;;;;;;;;5072320;28;20103;-58
2023/11/04 07:41:29;;;;;;;0.20;0.20;;;;;;;;;;5072371;28;20063;-58
2023/11/04 07:43:56;;;;;;;0.13;0.13;;;;;;;;;;5071884;28;20070;-58
2023/11/04 07:46:23;;;;;;;0.20;0.20;;;;;;;;;;5071829;28;20078;-58
2023/11/04 07:48:49;;;;;;;0.13;0.10;;;;;;;;;;5067144;28;20028;-58
2023/11/04 07:51:16;;;;;;;0.20;0.20;;;;;;;;;;5067006;28;20021;-57
2023/11/04 07:53:43;;;;;;;0.00;0.00;;;;;;;;;;5067296;28;20021;-58
2023/11/04 07:56:11;;;;;;;1.33;0.20;;;;;;;;;;5067254;28;20036;-58
2023/11/04 07:58:38;;;;;;;0.50;0.27;;;;;;;;;;5072003;28;20475;-58
2023/11/04 08:01:05;;;;;;;0.30;0.17;;;;;;;;;;5071696;28;20052;-58
2023/11/04 08:03:32;;;;;;;0.20;0.10;;;;;;;;;;5072108;28;20052;-58
2023/11/04 08:05:58;;;;;;;0.00;0.00;;;;;;;;;;5071958;28;20103;-57
2023/11/04 08:08:25;;;;;;;0.00;0.00;;;;;;;;;;5090892;28;20031;-57
2023/11/04 08:10:52;;;;;;;0.07;0.07;;;;;;;;;;5087032;28;20034;-58
2023/11/04 08:13:19;;;;;;;0.07;0.07;;;;;;;;;;5087132;28;20035;-57
2023/11/04 08:15:46;;;;;;;0.13;0.07;;;;;;;;;;5087052;28;20085;-58
2023/11/04 08:18:13;;;;;;;0.10;0.10;;;;;;;;;;5069699;28;20043;-59
2023/11/04 08:20:39;;;;;;;0.53;0.30;;;;;;;;;;5050714;28;20496;-57
2023/11/04 08:23:06;;;;;;;0.10;0.10;;;;;;;;;;5051921;28;20033;-57
2023/11/04 08:25:32;;;;;;;0.97;0.20;;;;;;;;;;5051681;28;20029;-58
2023/11/04 08:27:59;;;;;;;0.10;0.10;;;;;;;;;;5051696;28;20032;-58
2023/11/04 08:30:26;;;;;;;0.20;0.13;;;;;;;;;;5071112;28;20043;-57
2023/11/04 08:32:52;;;;;;;0.40;0.23;;;;;;;;;;5083135;28;20522;-58
2023/11/04 08:35:19;;;;;;;0.53;0.27;;;;;;;;;;5086374;28;20028;-58
2023/11/04 08:37:46;;;;;;;0.00;0.00;;;;;;;;;;5086964;28;20020;-57
2023/11/04 08:40:12;;;;;;;0.30;0.17;;;;;;;;;;5086847;28;20050;-58
2023/11/04 08:42:39;;;;;;;0.20;0.10;;;;;;;;;;5090262;28;20082;-57
2023/11/04 08:45:11;;;;;;;0.40;0.20;;;;;;;;;;5091798;28;20077;-57
2023/11/04 08:47:38;;;;;;;0.03;0.03;;;;;;;;;;5095577;28;20035;-58
2023/11/04 08:50:06;;;;;;;0.10;0.10;;;;;;;;;;5095777;28;20028;-57
2023/11/04 08:52:32;;;;;;;0.00;0.00;;;;;;;;;;5095065;28;20310;-57
2023/11/04 08:55:01;;;;;;;0.20;0.20;;;;;;;;;;5091891;28;20059;-58
2023/11/04 08:57:27;;;;;;;0.13;0.10;;;;;;;;;;5090611;28;20096;-57
2023/11/04 08:59:54;;;;;;;0.20;0.10;;;;;;;;;;5090268;28;20054;-57
2023/11/04 09:02:21;;;;;;;0.10;0.10;;;;;;;;;;5074020;28;20047;-58
2023/11/04 09:04:48;;;;;;;0.70;0.30;;;;;;;;;;5073031;28;20029;-58
2023/11/04 09:07:14;;;;;;;0.10;0.10;;;;;;;;;;5075150;28;20048;-58
2023/11/04 09:09:41;;;;;;;0.00;0.00;;;;;;;;;;5074872;28;20021;-58
2023/11/04 09:12:07;;;;;;;0.10;0.10;;;;;;;;;;5075978;28;20445;-57
2023/11/04 09:14:36;;;;;;;0.10;0.10;;;;;;;;;;5074987;28;20019;-57
2023/11/04 09:17:03;;;;;;;0.10;0.10;;;;;;;;;;5071804;28;20588;-58
2023/11/04 09:19:30;;;;;;;0.53;0.37;;;;;;;;;;5069663;28;20119;-57
2023/11/04 09:21:56;;;;;;;0.30;0.20;;;;;;;;;;5080891;28;20063;-57
2023/11/04 09:24:23;;;;;;;0.93;0.20;;;;;;;;;;5090122;28;20028;-57
2023/11/04 09:26:50;;;;;;;0.10;0.10;;;;;;;;;;5092234;28;20032;-57
2023/11/04 09:29:16;;;;;;;0.13;0.13;;;;;;;;;;5095169;28;20028;-57
2023/11/04 09:31:43;;;;;;;0.10;0.10;;;;;;;;;;5075991;28;20031;-57
2023/11/04 09:34:10;;;;;;;0.10;0.10;;;;;;;;;;5074829;28;20026;-57
2023/11/04 09:36:36;;;;;;;0.10;0.10;;;;;;;;;;5074359;28;20063;-58
2023/11/04 09:39:04;;;;;;;0.77;0.37;;;;;;;;;;5071877;28;20515;-58
2023/11/04 09:41:31;;;;;;;0.27;0.23;;;;;;;;;;5069568;28;20059;-58
2023/11/04 09:43:58;;;;;;;0.73;0.40;;;;;;;;;;5088044;28;20035;-57
2023/11/04 09:46:24;;;;;;;0.30;0.30;;;;;;;;;;5089893;28;20024;-58
2023/11/04 09:48:51;;;;;;;0.10;0.10;;;;;;;;;;5091523;28;20012;-57
2023/11/04 09:51:20;;;;;;;0.47;0.27;;;;;;;;;;5094518;28;20030;-58
2023/11/04 09:53:53;;;;;;;0.63;0.30;;;;;;;;;;5092926;28;20020;-57
2023/11/04 09:56:22;;;;;;;7.27;0.80;;;;;;;;;;5074247;28;20029;-57
2023/11/04 09:58:49;;;;;;;0.27;0.20;;;;;;;;;;5072576;28;20020;-58
2023/11/04 10:01:18;;;;;;;0.47;0.30;;;;;;;;;;5071996;28;20039;-57
2023/11/04 10:03:47;;;;;;;0.40;0.20;;;;;;;;;;5069442;28;20032;-57
2023/11/04 10:06:15;;;;;;;1.60;0.40;;;;;;;;;;5076407;28;20047;-57
2023/11/04 10:08:43;;;;;;;0.50;0.23;;;;;;;;;;5086571;28;20467;-58
2023/11/04 10:11:10;;;;;;;0.67;0.40;;;;;;;;;;5071030;28;20021;-58
2023/11/04 10:13:37;;;;;;;0.53;0.30;;;;;;;;;;5073631;28;20106;-58
2023/11/04 10:16:03;;;;;;;0.20;0.20;;;;;;;;;;5082012;28;20107;-58
2023/11/04 10:18:33;;;;;;;0.00;0.00;;;;;;;;;;5094368;28;20020;-57
2023/11/04 10:21:00;;;;;;;0.20;0.20;;;;;;;;;;5091400;28;20047;-57
2023/11/04 10:23:27;;;;;;;0.23;0.20;;;;;;;;;;5087783;28;20051;-57
2023/11/04 10:25:54;;;;;;;0.60;0.30;;;;;;;;;;5068930;28;20024;-58
2023/11/04 10:28:23;;;;;;;0.30;0.27;;;;;;;;;;5068754;28;20039;-57
2023/11/04 10:30:52;;;;;;;0.00;0.00;;;;;;;;;;5068820;28;20031;-58
2023/11/04 10:33:20;;;;;;;0.10;0.10;;;;;;;;;;5072188;28;20036;-57
2023/11/04 10:35:49;;;;;;;0.30;0.30;;;;;;;;;;5093924;28;20024;-57
2023/11/04 10:38:19;;;;;;;0.40;0.27;;;;;;;;;;5093391;28;20501;-57
2023/11/04 10:40:48;;;;;;;0.20;0.20;;;;;;;;;;5093755;28;20032;-57
2023/11/04 10:43:16;;;;;;;0.70;0.40;;;;;;;;;;5093380;28;20470;-58
2023/11/04 10:45:49;;;;;;;0.03;0.03;;;;;;;;;;5089372;28;20099;-57
2023/11/04 10:48:19;;;;;;;1.23;0.30;;;;;;;;;;5082811;28;20036;-57
2023/11/04 10:50:50;;;;;;;0.50;0.40;;;;;;;;;;5076429;28;20522;-57
2023/11/04 10:53:41;;;;;;;0.20;0.20;;;;;;;;;;5081827;28;20035;-57
2023/11/04 10:56:16;;;;;;;0.33;0.20;;;;;;;;;;5091066;28;20039;-57
2023/11/04 10:58:59;;;;;;;0.10;0.10;;;;;;;;;;5093401;28;20546;-57
2023/11/04 11:01:28;;;;;;;0.10;0.10;;;;;;;;;;5093481;28;20103;-57
2023/11/04 11:03:55;;;;;;;0.30;0.20;;;;;;;;;;5074458;28;20609;-57
2023/11/04 11:06:22;;;;;;;0.43;0.23;;;;;;;;;;5073167;28;20025;-58
2023/11/04 11:08:49;;;;;;;0.20;0.20;;;;;;;;;;5068915;28;20035;-57
2023/11/04 11:11:19;;;;;;;0.93;0.30;;;;;;;;;;5067915;28;20096;-58
2023/11/04 11:13:49;;;;;;;0.10;0.10;;;;;;;;;;5068960;28;20037;-57
2023/11/04 11:16:16;;;;;;;0.00;0.00;;;;;;;;;;5088098;28;20028;-57
2023/11/04 11:18:43;;;;;;;0.73;0.30;;;;;;;;;;5090687;28;21377;-57
2023/11/04 11:21:10;;;;;;;0.20;0.20;;;;;;;;;;5092962;28;20487;-58
2023/11/04 11:23:37;;;;;;;0.30;0.30;;;;;;;;;;5093209;28;20020;-57
2023/11/04 11:26:04;;;;;;;0.63;0.30;;;;;;;;;;5088986;28;20024;-57
2023/11/04 11:28:36;;;;;;;0.20;0.10;;;;;;;;;;5072775;28;20029;-57
2023/11/04 11:31:02;;;;;;;0.37;0.20;;;;;;;;;;5068798;28;20021;-57
2023/11/04 11:33:30;;;;;;;0.57;0.20;;;;;;;;;;5067479;28;20119;-57
2023/11/04 11:35:58;;;;;;;0.17;0.13;;;;;;;;;;5069119;28;20024;-57
2023/11/04 11:38:31;;;;;;;0.10;0.10;;;;;;;;;;5087783;28;20078;-57
2023/11/04 11:41:08;;;;;;;0.17;0.10;;;;;;;;;;5090858;28;20032;-57
2023/11/04 11:43:35;;;;;;;0.20;0.20;;;;;;;;;;5092947;28;20479;-57
2023/11/04 11:46:05;;;;;;;0.10;0.10;;;;;;;;;;5092781;28;20479;-57
2023/11/04 11:48:39;;;;;;;3.50;0.53;;;;;;;;;;5087390;28;20021;-57
2023/11/04 11:51:07;;;;;;;0.17;0.17;;;;;;;;;;5072068;28;20021;-57
2023/11/04 11:53:34;;;;;;;0.30;0.20;;;;;;;;;;5068069;28;20380;-57
2023/11/04 11:56:01;;;;;;;0.20;0.13;;;;;;;;;;5067307;28;20052;-57
2023/11/04 11:58:28;;;;;;;0.20;0.20;;;;;;;;;;5067449;28;20485;-57
2023/11/04 12:00:58;;;;;;;0.10;0.10;;;;;;;;;;5072244;28;20418;-57
2023/11/04 12:03:26;;;;;;;0.30;0.20;;;;;;;;;;5091169;28;20363;-57
2023/11/04 12:05:53;;;;;;;3.90;0.30;;;;;;;;;;5092248;28;20024;-57
2023/11/04 12:08:20;;;;;;;0.30;0.20;;;;;;;;;;5072260;28;20046;-57
2023/11/04 12:10:47;;;;;;;0.23;0.20;;;;;;;;;;5071939;28;20035;-57
2023/11/04 12:13:14;;;;;;;0.37;0.23;;;;;;;;;;5071920;28;20166;-57
2023/11/04 12:15:47;;;;;;;0.13;0.13;;;;;;;;;;5068244;28;20021;-57
2023/11/04 12:18:14;;;;;;;0.30;0.13;;;;;;;;;;5084685;28;20032;-57
2023/11/04 12:20:42;;;;;;;1.27;0.83;;;;;;;;;;5087349;28;20040;-57
2023/11/04 12:23:13;;;;;;;0.77;0.57;;;;;;;;;;5087581;28;20020;-58
2023/11/04 12:25:41;;;;;;;4.10;2.10;;;;;;;;;;5094766;28;20367;-57
2023/11/04 12:28:11;;;;;;;0.20;0.20;;;;;;;;;;5096175;28;20024;-57
2023/11/04 12:30:38;;;;;;;0.70;0.40;;;;;;;;;;5096022;28;20051;-57
2023/11/04 12:33:05;;;;;;;0.90;0.60;;;;;;;;;;5079884;28;20039;-57
2023/11/04 12:35:35;;;;;;;0.60;0.40;;;;;;;;;;5075759;28;20036;-57
2023/11/04 12:38:02;;;;;;;0.80;0.60;;;;;;;;;;5072208;28;20214;-57
2023/11/04 12:40:29;;;;;;;0.10;0.10;;;;;;;;;;5070868;28;20036;-57
2023/11/04 12:43:02;;;;;;;0.93;0.60;;;;;;;;;;5070881;28;20074;-57
2023/11/04 12:45:29;;;;;;;0.23;0.23;;;;;;;;;;5087315;28;20093;-57
2023/11/04 12:47:56;;;;;;;1.13;0.50;;;;;;;;;;5094308;28;20066;-57
2023/11/04 12:50:22;;;;;;;0.60;0.50;;;;;;;;;;5095978;28;20020;-57
2023/11/04 12:52:52;;;;;;;4.50;1.47;;;;;;;;;;5095765;28;20032;-57
2023/11/04 12:55:18;;;;;;;3.43;0.93;;;;;;;;;;5094671;28;20043;-57
2023/11/04 12:57:45;;;;;;;0.47;0.37;;;;;;;;;;5075485;28;20020;-57
2023/11/04 13:00:12;;;;;;;0.70;0.50;;;;;;;;;;5071658;28;20040;-57
2023/11/04 13:02:38;;;;;;;0.97;0.63;;;;;;;;;;5070111;28;20025;-57
2023/11/04 13:05:06;;;;;;;0.93;0.57;;;;;;;;;;5070256;28;20024;-57
2023/11/04 13:07:32;;;;;;;0.50;0.50;;;;;;;;;;5071971;28;20383;-57
2023/11/04 13:09:59;;;;;;;0.30;0.20;;;;;;;;;;5093361;28;20032;-57
2023/11/04 13:12:26;;;;;;;0.33;0.30;;;;;;;;;;5095637;28;20024;-57
2023/11/04 13:14:53;;;;;;;0.63;0.43;;;;;;;;;;5095160;28;20491;-57
2023/11/04 13:17:20;;;;;;;0.73;0.60;;;;;;;;;;5095237;28;20096;-57
2023/11/04 13:19:46;;;;;;;0.43;0.40;;;;;;;;;;5088859;28;20495;-57
2023/11/04 13:22:13;;;;;;;0.20;0.20;;;;;;;;;;5072222;28;20024;-57
2023/11/04 13:24:40;;;;;;;0.20;0.20;;;;;;;;;;5076268;28;20028;-57
2023/11/04 13:27:06;;;;;;;0.63;0.40;;;;;;;;;;5089969;28;20032;-57
2023/11/04 13:29:33;;;;;;;0.30;0.30;;;;;;;;;;5090079;28;20020;-57
2023/11/04 13:32:01;;;;;;;0.73;0.30;;;;;;;;;;5091992;28;20036;-57
2023/11/04 13:34:31;;;;;;;0.40;0.37;;;;;;;;;;5090267;28;20032;-57
2023/11/04 13:36:58;;;;;;;0.57;0.33;;;;;;;;;;5074602;28;20379;-57
2023/11/04 13:39:25;;;;;;;0.57;0.40;;;;;;;;;;5074751;28;20036;-57
2023/11/04 13:41:52;;;;;;;0.13;0.10;;;;;;;;;;5074623;28;20111;-57
2023/11/04 13:44:20;;;;;;;1.03;0.50;;;;;;;;;;5072212;28;20071;-57
2023/11/04 13:46:46;;;;;;;0.53;0.47;;;;;;;;;;5076750;28;20111;-57
2023/11/04 13:49:13;;;;;;;0.93;0.50;;;;;;;;;;5089757;28;20023;-57
2023/11/04 13:51:40;;;;;;;1.17;0.63;;;;;;;;;;5089707;28;20538;-58
2023/11/04 13:54:07;;;;;;;4.07;0.37;;;;;;;;;;5091605;28;20094;-57
2023/11/04 13:56:34;;;;;;;0.10;0.10;;;;;;;;;;5092330;28;20493;-57
2023/11/04 13:59:02;;;;;;;2.90;0.57;;;;;;;;;;5074143;28;20024;-58
2023/11/04 14:01:29;;;;;;;0.37;0.30;;;;;;;;;;5074212;28;20037;-58
2023/11/04 14:03:55;;;;;;;0.10;0.10;;;;;;;;;;5074319;28;20037;-57
2023/11/04 14:06:22;;;;;;;0.30;0.13;;;;;;;;;;5071797;28;20016;-58
2023/11/04 14:08:49;;;;;;;0.17;0.10;;;;;;;;;;5088687;28;20030;-58
2023/11/04 14:11:16;;;;;;;3.50;0.57;;;;;;;;;;5089172;28;20052;-58
2023/11/04 14:13:42;;;;;;;0.33;0.10;;;;;;;;;;5088805;28;20032;-58
2023/11/04 14:16:09;;;;;;;0.20;0.20;;;;;;;;;;5090830;28;20019;-58
2023/11/04 14:18:36;;;;;;;0.10;0.10;;;;;;;;;;5094120;28;20021;-58
2023/11/04 14:21:07;;;;;;;0.20;0.13;;;;;;;;;;5082287;28;20043;-58
2023/11/04 14:23:34;;;;;;;0.63;0.53;;;;;;;;;;5073466;28;20033;-58
2023/11/04 14:26:03;;;;;;;0.87;0.30;;;;;;;;;;5073957;28;20028;-58
2023/11/04 14:28:30;;;;;;;0.17;0.17;;;;;;;;;;5090008;28;20042;-58
2023/11/04 14:30:57;;;;;;;0.30;0.20;;;;;;;;;;5088895;28;20058;-59
2023/11/04 14:33:24;;;;;;;1.07;0.40;;;;;;;;;;5088825;28;20053;-58
2023/11/04 14:35:51;;;;;;;0.40;0.30;;;;;;;;;;5088775;28;20109;-58
2023/11/04 14:38:18;;;;;;;0.17;0.13;;;;;;;;;;5088141;28;20108;-58
2023/11/04 14:40:44;;;;;;;0.70;0.40;;;;;;;;;;5093303;28;20497;-58
2023/11/04 14:43:11;;;;;;;3.53;0.53;;;;;;;;;;5093314;28;20058;-58